Time;durP1;ratioP1;P1;durP2;ratioP2;P2;SDS_P1;SDS_P2;PMS_P1;PMS_P2;Temp;Humidity;BMP_temperature;BMP_pressure;BME280_temperature;BME280_humidity;BME280_pressure;Samples;Min_cycle;Max_cycle;Signal;HPM_P1;HPM_P2
2024/01/29 00:00:11;;;;;;;19.57;12.73;;;;;;;3.13;93.63;102460.82;1725723;83;25381;-41
2024/01/29 00:02:40;;;;;;;16.97;11.05;;;;;;;3.10;93.27;102455.88;1725626;83;27433;-42
2024/01/29 00:05:08;;;;;;;18.57;11.93;;;;;;;3.11;93.43;102460.20;1725493;82;25539;-41
2024/01/29 00:07:34;;;;;;;19.50;11.45;;;;;;;3.10;93.34;102457.22;1725605;82;25633;-42
2024/01/29 00:10:05;;;;;;;22.05;12.98;;;;;;;3.09;93.40;102462.27;1725536;82;25555;-42
2024/01/29 00:12:33;;;;;;;28.65;16.48;;;;;;;3.08;93.43;102460.13;1734933;81;25726;-43
2024/01/29 00:15:04;;;;;;;19.17;12.30;;;;;;;3.07;93.35;102461.14;1748832;81;27320;-42
2024/01/29 00:17:31;;;;;;;;;;;;;;;3.07;93.32;102463.81;1751210;82;25414;-42
2024/01/29 00:20:00;;;;;;;21.80;12.50;;;;;;;3.06;93.30;102464.02;1748717;81;25522;-40
2024/01/29 00:22:28;;;;;;;22.32;12.30;;;;;;;3.04;93.56;102460.20;1748643;82;25897;-41
2024/01/29 00:24:56;;;;;;;20.05;11.28;;;;;;;3.03;93.67;102461.25;1748692;82;25389;-43
2024/01/29 00:27:25;;;;;;;21.42;12.63;;;;;;;3.03;93.56;102456.39;1748704;81;27411;-42
2024/01/29 00:29:54;;;;;;;18.40;12.47;;;;;;;3.02;93.76;102445.41;1748547;82;26016;-41
2024/01/29 00:32:22;;;;;;;19.52;12.28;;;;;;;2.99;93.68;102447.44;1748624;82;25406;-43
2024/01/29 00:34:51;;;;;;;17.07;12.07;;;;;;;2.98;93.52;102457.03;1748714;82;26092;-43
2024/01/29 00:37:22;;;;;;;21.35;12.00;;;;;;;2.97;93.64;102458.86;1748713;82;25628;-42
2024/01/29 00:39:50;;;;;;;21.40;12.68;;;;;;;2.95;93.40;102456.09;1748715;81;28152;-41
2024/01/29 00:42:20;;;;;;;21.10;11.63;;;;;;;2.93;93.40;102454.97;1748594;81;26009;-42
2024/01/29 00:44:49;;;;;;;20.68;11.22;;;;;;;2.92;93.32;102445.81;1748743;81;25571;-42
2024/01/29 00:47:20;;;;;;;18.60;11.83;;;;;;;2.91;93.21;102446.33;1748704;81;25870;-40
2024/01/29 00:49:47;;;;;;;21.87;11.18;;;;;;;2.89;93.05;102455.57;1748404;82;25447;-41
2024/01/29 00:52:15;;;;;;;20.25;11.95;;;;;;;2.88;93.05;102452.58;1748594;81;28097;-40
2024/01/29 00:54:42;;;;;;;21.50;11.73;;;;;;;2.86;93.06;102450.13;1748567;81;25747;-41
2024/01/29 00:57:09;;;;;;;19.00;11.65;;;;;;;2.87;93.22;102454.44;1748657;82;25633;-42
2024/01/29 00:59:38;;;;;;;23.15;11.60;;;;;;;2.88;93.11;102453.42;1748602;81;26445;-41
2024/01/29 01:02:06;;;;;;;19.92;11.00;;;;;;;2.87;93.02;102450.95;1748682;81;25605;-41
2024/01/29 01:04:35;;;;;;;20.45;11.65;;;;;;;2.88;93.18;102452.58;1748645;81;28372;-42
2024/01/29 01:07:03;;;;;;;18.45;11.20;;;;;;;2.88;93.12;102446.73;1748548;82;25699;-41
2024/01/29 01:09:30;;;;;;;22.10;11.63;;;;;;;2.88;92.92;102437.38;1748941;82;25549;-44
2024/01/29 01:12:00;;;;;;;22.85;11.80;;;;;;;2.88;92.88;102440.05;1748424;81;26436;-42
2024/01/29 01:14:26;;;;;;;23.50;12.63;;;;;;;2.86;92.78;102429.24;1741958;82;25613;-40
2024/01/29 01:16:53;;;;;;;21.33;11.78;;;;;;;2.85;92.68;102425.75;1741959;82;28099;-41
2024/01/29 01:19:22;;;;;;;22.07;12.93;;;;;;;2.83;92.45;102423.80;1741797;82;25390;-41
2024/01/29 01:21:51;;;;;;;20.65;12.50;;;;;;;2.82;92.62;102417.33;1741961;82;25551;-40
2024/01/29 01:24:17;;;;;;;23.22;12.03;;;;;;;2.80;92.62;102418.86;1741876;82;26169;-42
2024/01/29 01:26:44;;;;;;;25.27;12.68;;;;;;;2.79;92.62;102415.38;1741919;82;25475;-40
2024/01/29 01:29:10;;;;;;;25.92;12.95;;;;;;;2.78;92.55;102410.23;1741890;82;28340;-42
2024/01/29 01:31:39;;;;;;;21.73;12.47;;;;;;;2.77;92.59;102417.41;1741770;82;25628;-42
2024/01/29 01:34:05;;;;;;;24.12;12.07;;;;;;;2.75;92.40;102411.97;1741843;82;25397;-44
2024/01/29 01:36:33;;;;;;;19.62;11.80;;;;;;;2.73;92.50;102412.70;1741854;82;25689;-41
2024/01/29 01:39:00;;;;;;;19.40;11.93;;;;;;;2.72;92.41;102411.04;1741883;82;25377;-41
2024/01/29 01:41:27;;;;;;;24.80;12.55;;;;;;;2.72;92.54;102415.05;1741925;82;28418;-41
2024/01/29 01:43:55;;;;;;;20.65;12.75;;;;;;;2.70;92.45;102407.75;1741703;82;27113;-42
2024/01/29 01:46:24;;;;;;;21.93;12.45;;;;;;;2.69;92.35;102406.94;1741869;82;25629;-41
2024/01/29 01:48:54;;;;;;;21.57;12.53;;;;;;;2.68;92.21;102408.48;1742052;82;25998;-42
2024/01/29 01:51:23;;;;;;;20.48;11.90;;;;;;;2.66;92.16;102411.88;1741873;82;25386;-44
2024/01/29 01:53:55;;;;;;;20.82;11.83;;;;;;;2.63;92.06;102407.75;1742085;82;27417;-42
2024/01/29 01:56:23;;;;;;;23.25;13.15;;;;;;;2.63;92.20;102409.60;1741750;82;25362;-41
2024/01/29 01:58:53;;;;;;;18.00;11.73;;;;;;;2.60;92.14;102405.48;1720801;82;25524;-42
2024/01/29 02:01:22;;;;;;;22.77;12.55;;;;;;;2.57;91.94;102412.06;1741881;82;25559;-42
2024/01/29 02:03:50;;;;;;;22.58;11.88;;;;;;;2.56;91.85;102415.75;1741848;82;25629;-45
2024/01/29 02:06:16;;;;;;;19.80;11.68;;;;;;;2.53;91.83;102414.00;1741827;82;27312;-42
2024/01/29 02:08:45;;;;;;;18.95;11.22;;;;;;;2.52;91.63;102419.86;1741760;82;25605;-42
2024/01/29 02:11:12;;;;;;;19.48;11.57;;;;;;;2.48;91.48;102409.78;1741975;82;25452;-42
2024/01/29 02:13:40;;;;;;;21.37;12.30;;;;;;;2.45;91.48;102416.33;1745713;82;26295;-43
2024/01/29 02:16:08;;;;;;;26.60;13.38;;;;;;;2.42;91.41;102412.23;1748847;82;25616;-41
2024/01/29 02:18:35;;;;;;;21.35;12.05;;;;;;;2.40;91.39;102411.62;1748813;82;27777;-43
2024/01/29 02:21:03;;;;;;;19.92;11.35;;;;;;;2.38;91.37;102415.50;1748595;82;26037;-42
2024/01/29 02:23:30;;;;;;;23.50;12.60;;;;;;;2.35;91.32;102418.57;1748730;82;25398;-41
2024/01/29 02:25:58;;;;;;;21.55;12.07;;;;;;;2.34;91.36;102414.27;1748711;81;25811;-40
2024/01/29 02:28:27;;;;;;;22.70;11.40;;;;;;;2.34;91.47;102420.42;1748779;82;25567;-41
2024/01/29 02:30:55;;;;;;;22.00;12.47;;;;;;;2.33;91.44;102421.96;1748814;81;27374;-41
2024/01/29 02:33:24;;;;;;;21.77;12.73;;;;;;;2.31;91.71;102418.16;1748644;82;25776;-42
2024/01/29 02:35:52;;;;;;;19.82;11.63;;;;;;;2.29;91.56;102410.86;1748691;82;25553;-41
2024/01/29 02:38:19;;;;;;;24.52;11.88;;;;;;;2.29;91.50;102418.06;1748953;82;25635;-41
2024/01/29 02:40:45;;;;;;;21.85;11.60;;;;;;;2.28;91.64;102417.73;1748760;82;25571;-41
2024/01/29 02:43:12;;;;;;;21.10;11.85;;;;;;;2.24;91.65;102410.13;1748695;82;27693;-41
2024/01/29 02:45:40;;;;;;;21.17;11.78;;;;;;;2.23;91.50;102411.66;1748660;82;25438;-41
2024/01/29 02:48:09;;;;;;;22.90;12.93;;;;;;;2.22;91.61;102408.69;1748807;82;25390;-43
2024/01/29 02:50:35;;;;;;;21.37;13.15;;;;;;;2.21;91.59;102406.55;1748687;82;26323;-42
2024/01/29 02:53:04;;;;;;;20.57;11.73;;;;;;;2.22;91.57;102414.03;1748934;82;25440;-42
2024/01/29 02:55:32;;;;;;;20.75;12.45;;;;;;;2.21;91.88;102420.38;1748702;82;28343;-42
2024/01/29 02:57:59;;;;;;;22.20;13.18;;;;;;;2.22;91.91;102423.37;1748635;82;25529;-42
2024/01/29 03:00:27;;;;;;;24.50;12.88;;;;;;;2.23;91.98;102426.34;1748745;82;25567;-43
2024/01/29 03:02:57;;;;;;;25.07;12.73;;;;;;;2.25;91.93;102426.98;1748950;82;25584;-43
2024/01/29 03:05:24;;;;;;;21.00;12.67;;;;;;;2.28;92.00;102425.75;1749026;82;25530;-42
2024/01/29 03:07:54;;;;;;;21.60;12.25;;;;;;;2.29;91.91;102429.55;1748710;82;27199;-43
2024/01/29 03:10:23;;;;;;;25.32;14.13;;;;;;;2.30;91.97;102427.70;1748635;82;25785;-43
2024/01/29 03:12:49;;;;;;;21.20;12.85;;;;;;;2.33;92.15;102429.97;1748693;81;25443;-41
2024/01/29 03:15:18;;;;;;;20.00;11.20;;;;;;;2.35;92.00;102419.91;1748727;81;26481;-42
2024/01/29 03:17:46;;;;;;;20.57;12.07;;;;;;;2.36;91.95;102418.38;1748729;81;25543;-42
2024/01/29 03:20:14;;;;;;;22.27;11.55;;;;;;;2.39;91.97;102419.83;1748715;82;27431;-42
2024/01/29 03:22:43;;;;;;;18.37;10.82;;;;;;;2.40;91.97;102418.30;1748586;82;26042;-43
2024/01/29 03:25:12;;;;;;;16.87;11.53;;;;;;;2.41;91.84;102420.45;1748720;82;25485;-43
2024/01/29 03:27:40;;;;;;;24.43;11.60;;;;;;;2.39;91.84;102412.63;1748804;82;25571;-42
2024/01/29 03:30:11;;;;;;;22.82;11.88;;;;;;;2.41;91.72;102412.44;1748671;82;25591;-44
2024/01/29 03:32:39;;;;;;;22.90;12.53;;;;;;;2.41;91.92;102410.58;1748693;82;27289;-41
2024/01/29 03:35:09;;;;;;;23.62;11.80;;;;;;;2.39;91.78;102396.61;1748858;81;26025;-42
2024/01/29 03:37:38;;;;;;;19.80;10.10;;;;;;;2.39;91.81;102391.78;1748742;81;25445;-42
2024/01/29 03:40:08;;;;;;;20.25;11.68;;;;;;;2.38;91.85;102393.64;1748706;81;26313;-42
2024/01/29 03:42:35;;;;;;;16.73;11.10;;;;;;;2.39;91.77;102393.13;1748867;82;25549;-41
2024/01/29 03:45:01;;;;;;;21.52;11.80;;;;;;;2.37;91.65;102383.97;1748675;82;27917;-41
2024/01/29 03:47:30;;;;;;;19.00;11.65;;;;;;;2.37;91.60;102385.83;1748586;82;25558;-41
2024/01/29 03:49:57;;;;;;;20.55;11.73;;;;;;;2.35;91.54;102388.70;1748712;81;25458;-41
2024/01/29 03:52:25;;;;;;;18.80;11.40;;;;;;;2.33;91.44;102385.38;1748736;82;25572;-42
2024/01/29 03:54:52;;;;;;;20.00;11.10;;;;;;;2.32;91.54;102386.42;1748723;82;25605;-40
2024/01/29 03:57:20;;;;;;;19.87;11.57;;;;;;;2.31;91.58;102383.44;1748684;82;27692;-42
2024/01/29 03:59:47;;;;;;;19.52;11.68;;;;;;;2.30;91.30;102378.29;1748626;82;25529;-41
2024/01/29 04:02:17;;;;;;;18.77;11.33;;;;;;;2.27;91.44;102372.05;1748714;81;25440;-42
2024/01/29 04:04:47;;;;;;;24.02;13.00;;;;;;;2.24;91.49;102366.06;1748615;82;26106;-43
2024/01/29 04:07:16;;;;;;;18.35;11.45;;;;;;;2.24;91.42;102366.06;1748814;82;25412;-42
2024/01/29 04:09:45;;;;;;;20.57;12.05;;;;;;;2.22;91.43;102369.45;1748848;81;28325;-42
2024/01/29 04:12:13;;;;;;;20.80;12.53;;;;;;;2.18;91.45;102364.22;1748784;82;25689;-43
2024/01/29 04:14:40;;;;;;;23.12;11.97;;;;;;;2.15;91.41;102364.61;1731904;82;25606;-43
2024/01/29 04:17:09;;;;;;;20.75;11.75;;;;;;;2.13;91.34;102364.00;1725517;82;26021;-42
2024/01/29 04:19:39;;;;;;;20.95;11.85;;;;;;;2.12;91.39;102368.20;1725615;82;25394;-42
2024/01/29 04:22:07;;;;;;;18.00;11.28;;;;;;;2.09;91.42;102360.06;1725563;83;27656;-43
2024/01/29 04:24:34;;;;;;;19.50;10.75;;;;;;;2.09;91.39;102359.25;1725641;83;25670;-41
2024/01/29 04:27:03;;;;;;;18.17;11.18;;;;;;;2.08;91.50;102354.92;1725556;82;25561;-40
2024/01/29 04:29:32;;;;;;;16.82;10.25;;;;;;;2.07;91.23;102355.97;1725690;82;25482;-42
2024/01/29 04:31:59;;;;;;;19.63;10.77;;;;;;;2.05;91.29;102357.50;1725786;82;25582;-42
2024/01/29 04:34:27;;;;;;;19.82;11.18;;;;;;;2.02;91.24;102356.04;1725660;83;28332;-41
2024/01/29 04:36:53;;;;;;;20.65;11.35;;;;;;;1.99;91.20;102356.47;1725520;83;25806;-41
2024/01/29 04:39:22;;;;;;;17.73;10.43;;;;;;;1.98;91.15;102352.66;1725464;82;26051;-41
2024/01/29 04:41:53;;;;;;;19.57;11.15;;;;;;;1.96;91.09;102351.53;1725598;83;25540;-40
2024/01/29 04:44:20;;;;;;;25.75;11.53;;;;;;;1.95;90.91;102349.05;1725801;83;25407;-43
2024/01/29 04:46:47;;;;;;;16.73;10.05;;;;;;;1.94;90.97;102346.06;1725707;82;27683;-41
2024/01/29 04:49:15;;;;;;;15.32;9.58;;;;;;;1.94;91.05;102349.58;1725708;83;25454;-41
2024/01/29 04:51:42;;;;;;;18.83;9.87;;;;;;;1.94;90.92;102342.05;1725930;83;25447;-42
2024/01/29 04:54:10;;;;;;;18.45;10.13;;;;;;;1.93;90.97;102344.44;1725670;83;25580;-43
2024/01/29 04:56:37;;;;;;;15.85;9.98;;;;;;;1.94;90.83;102342.05;1725726;83;25616;-42
2024/01/29 04:59:05;;;;;;;15.72;9.40;;;;;;;1.95;90.84;102344.53;1725782;83;27692;-40
2024/01/29 05:01:32;;;;;;;20.68;11.33;;;;;;;1.95;90.90;102345.05;1725881;83;25638;-42
2024/01/29 05:03:58;;;;;;;18.07;9.60;;;;;;;1.93;90.79;102345.25;1725712;83;25529;-40
2024/01/29 05:06:27;;;;;;;16.30;9.30;;;;;;;1.94;90.91;102338.05;1725927;82;25990;-41
2024/01/29 05:08:55;;;;;;;18.42;10.08;;;;;;;1.95;90.98;102340.52;1725735;82;25427;-42
2024/01/29 05:11:24;;;;;;;20.60;10.60;;;;;;;1.96;90.99;102340.85;1725673;83;27343;-41
2024/01/29 05:13:53;;;;;;;18.67;9.88;;;;;;;1.97;91.01;102341.14;1729274;81;25765;-43
2024/01/29 05:16:21;;;;;;;17.65;10.85;;;;;;;1.99;90.95;102338.27;1742083;82;25395;-40
2024/01/29 05:18:49;;;;;;;18.40;10.83;;;;;;;1.99;90.96;102335.61;1742149;82;25569;-42
2024/01/29 05:21:17;;;;;;;16.62;9.95;;;;;;;1.99;90.90;102332.45;1741892;81;25625;-41
2024/01/29 05:23:45;;;;;;;16.48;10.15;;;;;;;2.01;90.86;102340.22;1741986;82;27482;-44
2024/01/29 05:26:13;;;;;;;23.22;11.03;;;;;;;1.98;90.70;102339.31;1741784;82;25555;-42
2024/01/29 05:28:40;;;;;;;19.80;11.05;;;;;;;1.98;90.97;102337.46;1741862;82;25427;-43
2024/01/29 05:31:06;;;;;;;17.82;10.38;;;;;;;2.00;90.91;102342.08;1741837;82;26295;-42
2024/01/29 05:33:33;;;;;;;18.42;11.10;;;;;;;2.00;90.89;102339.41;1741851;82;25432;-43
2024/01/29 05:36:00;;;;;;;16.48;10.55;;;;;;;2.01;90.84;102348.23;1741994;82;27671;-42
2024/01/29 05:38:34;;;;;;;18.90;11.15;;;;;;;2.00;90.72;102348.75;1742055;82;25684;-42
2024/01/29 05:41:01;;;;;;;17.45;10.95;;;;;;;2.01;90.65;102347.73;1741935;82;25553;-41
2024/01/29 05:43:27;;;;;;;19.62;11.35;;;;;;;2.01;90.72;102350.41;1741866;82;25611;-44
2024/01/29 05:45:54;;;;;;;19.17;10.80;;;;;;;2.01;90.71;102361.09;1741910;82;25449;-41
2024/01/29 05:48:20;;;;;;;16.65;10.78;;;;;;;2.01;90.68;102357.58;1741892;82;27257;-42
2024/01/29 05:50:47;;;;;;;20.57;11.55;;;;;;;2.00;90.69;102353.28;1741751;82;26010;-42
2024/01/29 05:53:14;;;;;;;14.93;10.18;;;;;;;2.00;90.75;102348.75;1741845;82;25589;-41
2024/01/29 05:55:42;;;;;;;18.20;9.98;;;;;;;1.99;90.63;102353.80;1741834;82;25606;-41
2024/01/29 05:58:09;;;;;;;17.70;11.15;;;;;;;1.99;90.58;102358.30;1741930;82;25606;-41
2024/01/29 06:00:37;;;;;;;16.40;11.03;;;;;;;1.99;90.60;102360.97;1742148;82;28612;-43
2024/01/29 06:03:06;;;;;;;16.97;10.60;;;;;;;1.96;90.61;102353.34;1741803;82;25467;-42
2024/01/29 06:05:32;;;;;;;17.67;10.93;;;;;;;1.96;90.46;102352.02;1742155;82;25396;-41
2024/01/29 06:07:59;;;;;;;18.12;10.50;;;;;;;1.96;90.46;102352.02;1741873;82;26288;-42
2024/01/29 06:10:26;;;;;;;16.65;10.75;;;;;;;1.96;90.44;102352.02;1741960;82;25552;-41
2024/01/29 06:12:55;;;;;;;16.85;10.15;;;;;;;1.96;90.44;102360.02;1741910;82;27348;-41
2024/01/29 06:15:21;;;;;;;15.90;10.70;;;;;;;1.96;90.37;102358.20;1741947;82;25973;-42
2024/01/29 06:17:48;;;;;;;17.35;10.95;;;;;;;1.96;90.35;102358.69;1741926;82;25551;-41
2024/01/29 06:20:19;;;;;;;17.60;11.12;;;;;;;1.96;90.13;102359.53;1741956;82;25631;-42
2024/01/29 06:22:47;;;;;;;19.50;11.03;;;;;;;1.95;90.17;102355.20;1742011;82;25567;-42
2024/01/29 06:25:19;;;;;;;14.47;10.28;;;;;;;1.96;90.12;102366.70;1741865;82;27684;-41
2024/01/29 06:27:48;;;;;;;17.27;10.45;;;;;;;1.98;89.88;102366.01;1741798;82;25422;-43
2024/01/29 06:30:16;;;;;;;17.25;10.72;;;;;;;1.98;90.05;102358.00;1741839;82;25458;-41
2024/01/29 06:32:43;;;;;;;20.05;11.25;;;;;;;1.99;90.00;102360.97;1741873;82;25716;-42
2024/01/29 06:35:11;;;;;;;19.52;11.65;;;;;;;1.99;89.90;102363.14;1741890;82;25437;-42
2024/01/29 06:37:38;;;;;;;17.30;10.98;;;;;;;2.00;90.04;102367.44;1741847;82;27286;-41
2024/01/29 06:40:08;;;;;;;16.50;9.95;;;;;;;2.01;89.67;102366.92;1741772;82;25412;-43
2024/01/29 06:42:36;;;;;;;15.08;10.28;;;;;;;2.00;89.55;102372.78;1741853;82;25604;-42
2024/01/29 06:45:07;;;;;;;19.70;10.43;;;;;;;1.98;89.40;102378.84;1741915;82;25618;-41
2024/01/29 06:47:34;;;;;;;16.15;9.80;;;;;;;1.99;89.00;102379.65;1741923;82;25385;-42
2024/01/29 06:50:04;;;;;;;19.17;10.90;;;;;;;1.98;89.30;102374.83;1741790;82;27876;-41
2024/01/29 06:52:31;;;;;;;16.95;10.55;;;;;;;1.99;89.22;102375.16;1742038;82;25821;-40
2024/01/29 06:54:57;;;;;;;13.68;9.78;;;;;;;1.98;89.16;102376.17;1741909;82;25532;-41
2024/01/29 06:57:27;;;;;;;18.23;11.08;;;;;;;2.00;89.01;102376.78;1741821;82;26411;-42
2024/01/29 06:59:55;;;;;;;18.73;10.50;;;;;;;2.01;88.79;102372.25;1741891;82;25585;-40
2024/01/29 07:02:24;;;;;;;18.92;10.98;;;;;;;2.01;88.58;102370.43;1741818;82;28134;-40
2024/01/29 07:04:53;;;;;;;16.65;11.22;;;;;;;2.02;88.79;102365.91;1741792;82;25767;-42
2024/01/29 07:07:20;;;;;;;17.42;11.10;;;;;;;2.04;88.79;102369.19;1741812;82;25569;-42
2024/01/29 07:09:51;;;;;;;15.35;10.08;;;;;;;2.05;88.94;102370.84;1741817;82;25387;-42
2024/01/29 07:12:19;;;;;;;16.35;11.68;;;;;;;2.07;88.96;102375.47;1741740;82;25613;-43
2024/01/29 07:14:46;;;;;;;17.23;11.30;;;;;;;2.08;88.50;102367.78;1744346;82;28348;-41
2024/01/29 07:17:15;;;;;;;17.07;11.20;;;;;;;2.08;88.83;102362.44;1748669;82;25379;-42
2024/01/29 07:19:45;;;;;;;17.27;11.68;;;;;;;2.11;87.92;102361.20;1748941;81;25447;-42
2024/01/29 07:22:18;;;;;;;17.30;11.50;;;;;;;2.12;88.46;102358.86;1748787;82;25724;-41
2024/01/29 07:24:42;;;;;;;16.10;11.20;;;;;;;2.13;88.48;102365.33;1747909;82;25651;-42
2024/01/29 07:27:08;;;;;;;16.65;11.03;;;;;;;2.13;87.71;102353.81;1748732;81;27701;-43
2024/01/29 07:29:35;;;;;;;18.82;11.15;;;;;;;2.13;88.13;102359.15;1748608;82;25246;-41
2024/01/29 07:32:04;;;;;;;16.45;10.08;;;;;;;2.13;88.32;102351.98;1723515;82;25422;-43
2024/01/29 07:34:31;;;;;;;;;;;;;;;2.16;88.17;102355.59;1751277;81;26074;-42
2024/01/29 07:36:59;;;;;;;16.32;10.68;;;;;;;2.17;88.22;102366.56;1748753;82;25422;-41
2024/01/29 07:39:28;;;;;;;16.50;11.08;;;;;;;2.16;87.78;102356.08;1748809;82;27394;-40
2024/01/29 07:41:54;;;;;;;18.75;10.38;;;;;;;2.16;87.64;102351.59;1748636;82;25489;-42
2024/01/29 07:44:21;;;;;;;15.78;10.10;;;;;;;2.17;87.88;102364.41;1748738;82;25591;-41
2024/01/29 07:46:47;;;;;;;15.90;10.65;;;;;;;2.19;87.36;102355.69;1748648;82;25375;-41
2024/01/29 07:49:14;;;;;;;15.48;9.98;;;;;;;2.18;87.92;102356.20;1748725;81;25542;-41
2024/01/29 07:51:42;;;;;;;14.18;9.38;;;;;;;2.22;87.74;102368.64;1748707;82;27924;-42
2024/01/29 07:54:09;;;;;;;14.70;9.78;;;;;;;2.23;87.85;102364.92;1748573;82;25395;-42
2024/01/29 07:56:39;;;;;;;13.83;9.38;;;;;;;2.24;87.63;102370.06;1748829;81;25544;-42
2024/01/29 07:59:06;;;;;;;15.32;10.15;;;;;;;2.28;87.96;102365.66;1748717;82;25414;-40
2024/01/29 08:01:34;;;;;;;14.78;8.90;;;;;;;2.31;87.39;102373.27;1748707;82;25529;-41
2024/01/29 08:04:03;;;;;;;16.17;9.28;;;;;;;2.32;87.87;102382.94;1748935;82;28328;-41
2024/01/29 08:06:29;;;;;;;14.55;9.08;;;;;;;2.35;87.52;102387.37;1748763;82;26004;-43
2024/01/29 08:08:58;;;;;;;11.63;7.85;;;;;;;2.37;87.74;102387.98;1748691;82;25655;-42
2024/01/29 08:11:27;;;;;;;10.85;7.37;;;;;;;2.40;87.54;102397.42;1748839;82;26137;-44
2024/01/29 08:13:53;;;;;;;11.57;7.27;;;;;;;2.38;86.89;102393.64;1748934;82;25403;-41
2024/01/29 08:16:22;;;;;;;10.72;7.17;;;;;;;2.40;86.23;102401.42;1748692;82;28015;-42
2024/01/29 08:18:51;;;;;;;11.57;7.85;;;;;;;2.35;86.33;102394.53;1748786;82;25490;-42
2024/01/29 08:21:18;;;;;;;9.95;6.95;;;;;;;2.37;86.40;102393.32;1748915;81;25553;-43
2024/01/29 08:23:45;;;;;;;12.25;6.70;;;;;;;2.41;85.77;102394.55;1748738;82;25824;-42
2024/01/29 08:26:13;;;;;;;9.43;6.80;;;;;;;2.65;86.35;102382.16;1748820;82;25407;-42
2024/01/29 08:28:40;;;;;;;11.08;7.45;;;;;;;2.94;89.46;102376.39;1748777;82;27507;-41
2024/01/29 08:31:08;;;;;;;10.23;7.15;;;;;;;3.51;90.46;102375.37;1748734;82;25719;-42
2024/01/29 08:33:35;;;;;;;10.10;7.28;;;;;;;4.03;90.59;102365.99;1748972;81;25690;-42
2024/01/29 08:36:02;;;;;;;10.23;6.70;;;;;;;4.58;90.65;102366.80;1748744;82;25393;-42
2024/01/29 08:38:29;;;;;;;9.95;7.30;;;;;;;5.09;88.59;102367.61;1748789;82;25602;-41
2024/01/29 08:40:57;;;;;;;8.80;6.62;;;;;;;5.50;87.22;102367.49;1748781;82;29476;-42
2024/01/29 08:43:24;;;;;;;10.45;6.70;;;;;;;5.83;82.80;102368.14;1748599;82;26075;-44
2024/01/29 08:45:51;;;;;;;9.65;6.50;;;;;;;6.20;84.06;102364.88;1748732;82;25455;-42
2024/01/29 08:48:18;;;;;;;10.82;7.00;;;;;;;6.60;83.36;102366.95;1748728;82;26013;-42
2024/01/29 08:50:45;;;;;;;8.75;6.65;;;;;;;6.81;78.84;102375.52;1748814;82;25552;-44
2024/01/29 08:53:14;;;;;;;10.98;7.30;;;;;;;6.87;78.22;102373.25;1748674;82;29412;-42
2024/01/29 08:55:41;;;;;;;9.73;7.20;;;;;;;7.09;78.93;102372.14;1748765;82;25471;-42
2024/01/29 08:58:08;;;;;;;10.95;7.87;;;;;;;7.44;79.47;102369.93;1748729;82;25412;-44
2024/01/29 09:00:35;;;;;;;9.88;7.30;;;;;;;7.81;79.17;102365.57;1748719;82;26269;-43
2024/01/29 09:03:03;;;;;;;10.68;7.25;;;;;;;7.96;72.75;102365.87;1748769;82;25460;-43
2024/01/29 09:05:32;;;;;;;9.25;7.22;;;;;;;8.01;73.50;102367.84;1748767;82;27493;-42
2024/01/29 09:07:59;;;;;;;11.53;8.13;;;;;;;8.02;74.34;102364.91;1748679;82;25698;-43
2024/01/29 09:10:28;;;;;;;11.30;7.87;;;;;;;8.19;73.44;102369.55;1748783;81;25537;-42
2024/01/29 09:12:56;;;;;;;10.98;7.37;;;;;;;8.25;73.62;102379.34;1748717;82;25387;-44
2024/01/29 09:15:23;;;;;;;13.03;10.03;;;;;;;8.38;72.00;102372.30;1746750;81;25584;-45
2024/01/29 09:17:49;;;;;;;11.65;9.20;;;;;;;8.34;68.81;102368.47;1741864;82;27193;-42
2024/01/29 09:20:18;;;;;;;9.68;7.58;;;;;;;8.39;70.29;102386.08;1741821;82;25537;-42
2024/01/29 09:22:44;;;;;;;9.53;7.50;;;;;;;8.39;70.04;102381.20;1741811;82;25550;-40
2024/01/29 09:25:12;;;;;;;10.65;7.62;;;;;;;8.52;69.66;102378.22;1741787;82;25655;-41
2024/01/29 09:27:39;;;;;;;10.38;7.92;;;;;;;8.71;69.65;102379.34;1741830;82;25628;-43
2024/01/29 09:30:11;;;;;;;11.80;7.92;;;;;;;8.70;67.39;102382.58;1741860;82;28216;-44
2024/01/29 09:32:37;;;;;;;10.55;7.92;;;;;;;8.76;68.35;102381.58;1741919;82;25600;-41
2024/01/29 09:35:08;;;;;;;9.08;7.80;;;;;;;8.91;67.74;102374.27;1742063;82;25590;-42
2024/01/29 09:37:36;;;;;;;11.28;8.05;;;;;;;9.22;67.91;102375.25;1742182;82;25992;-43
2024/01/29 09:40:10;;;;;;;10.35;7.53;;;;;;;9.33;65.74;102384.59;1742250;82;25600;-42
2024/01/29 09:42:42;;;;;;;12.05;8.25;;;;;;;9.45;66.70;102383.64;1741170;82;27691;-41
2024/01/29 09:45:13;;;;;;;8.75;6.50;;;;;;;9.80;68.27;102371.66;1741977;82;26000;-43
2024/01/29 09:47:41;;;;;;;11.45;7.60;;;;;;;10.25;64.69;102369.17;1742188;82;25529;-42
2024/01/29 09:50:13;;;;;;;12.13;7.70;;;;;;;10.33;65.66;102367.91;1742030;82;25653;-41
2024/01/29 09:52:41;;;;;;;11.38;7.75;;;;;;;10.64;64.59;102370.33;1741701;82;25668;-40
2024/01/29 09:55:11;;;;;;;8.58;6.80;;;;;;;10.96;65.17;102364.08;1740502;82;27179;-42
2024/01/29 09:57:39;;;;;;;9.20;6.55;;;;;;;11.35;65.44;102357.79;1741796;82;26177;-41
2024/01/29 10:00:12;;;;;;;10.15;6.95;;;;;;;11.64;65.03;102358.73;1741943;82;25390;-44
2024/01/29 10:02:42;;;;;;;7.67;6.70;;;;;;;11.74;60.90;102356.05;1741862;82;25642;-43
2024/01/29 10:05:13;;;;;;;9.40;6.95;;;;;;;11.79;57.56;102362.04;1741977;82;25348;-43
2024/01/29 10:07:42;;;;;;;10.85;7.05;;;;;;;11.82;60.80;102353.38;1741902;82;28320;-44
2024/01/29 10:10:11;;;;;;;11.12;8.85;;;;;;;11.84;58.43;102351.20;1741987;82;25373;-44
2024/01/29 10:12:39;;;;;;;9.45;7.47;;;;;;;11.70;60.09;102360.39;1741759;82;25842;-43
2024/01/29 10:15:07;;;;;;;7.43;6.10;;;;;;;11.50;60.67;102354.34;1741960;82;25629;-42
2024/01/29 10:17:33;;;;;;;9.85;6.80;;;;;;;12.03;61.34;102352.09;1742040;82;25549;-42
2024/01/29 10:20:00;;;;;;;8.15;6.33;;;;;;;12.17;56.97;102357.27;1741912;82;27255;-43
2024/01/29 10:22:28;;;;;;;9.53;6.70;;;;;;;12.40;58.92;102347.00;1741805;82;25664;-41
2024/01/29 10:25:03;;;;;;;7.78;5.95;;;;;;;12.71;57.83;102344.52;1741928;82;25399;-41
2024/01/29 10:27:32;;;;;;;10.78;6.72;;;;;;;13.10;56.40;102339.58;1741946;82;25304;-42
2024/01/29 10:29:58;;;;;;;9.23;6.75;;;;;;;13.23;56.59;102337.64;1741908;82;25391;-42
2024/01/29 10:32:27;;;;;;;7.60;6.17;;;;;;;13.62;56.32;102335.58;1741856;82;28292;-40
2024/01/29 10:34:53;;;;;;;8.45;5.75;;;;;;;13.79;51.84;102329.78;1741857;81;26027;-43
2024/01/29 10:37:22;;;;;;;7.62;6.12;;;;;;;13.95;54.15;102331.87;1741949;82;25127;-41
2024/01/29 10:39:56;;;;;;;8.43;6.25;;;;;;;14.47;53.40;102333.66;1741841;82;25430;-42
2024/01/29 10:42:28;;;;;;;8.13;6.20;;;;;;;14.96;53.59;102334.03;1741988;82;25194;-40
2024/01/29 10:45:02;;;;;;;8.20;6.30;;;;;;;15.56;53.55;102334.14;1741894;82;27280;-40
2024/01/29 10:47:33;;;;;;;8.13;6.25;;;;;;;15.92;50.95;102337.77;1741763;82;25545;-42
2024/01/29 10:50:04;;;;;;;8.33;6.83;;;;;;;15.97;49.09;102344.52;1741920;82;25392;-42
2024/01/29 10:52:33;;;;;;;7.25;5.95;;;;;;;15.73;48.49;102330.36;1741907;82;25529;-42
2024/01/29 10:55:05;;;;;;;8.48;6.30;;;;;;;15.21;48.10;102321.23;1741806;82;25609;-41
2024/01/29 10:57:35;;;;;;;7.47;5.95;;;;;;;14.85;45.27;102321.64;1741896;82;27313;-42
2024/01/29 11:00:08;;;;;;;7.25;5.80;;;;;;;15.06;48.08;102333.12;1712173;83;25474;-42
2024/01/29 11:02:36;;;;;;;9.98;6.35;;;;;;;14.95;47.48;102314.72;1712288;83;25376;-42
2024/01/29 11:05:08;;;;;;;8.25;6.17;;;;;;;15.50;47.41;102310.23;1712326;83;25694;-42
2024/01/29 11:07:40;;;;;;;29.10;22.95;;;;;;;15.85;47.87;102309.48;1712376;83;25637;-43
2024/01/29 11:10:23;;;;;;;11.78;8.03;;;;;;;15.65;46.60;102309.22;1712323;83;27303;-42
2024/01/29 11:12:53;;;;;;;7.53;6.22;;;;;;;15.20;49.06;102308.14;1712177;83;25201;-43
2024/01/29 11:15:23;;;;;;;10.43;6.90;;;;;;;14.89;47.19;102296.23;1712148;83;25593;-42
2024/01/29 11:17:52;;;;;;;9.00;6.62;;;;;;;14.48;48.40;102302.06;1712282;83;25842;-43
2024/01/29 11:20:18;;;;;;;10.13;6.75;;;;;;;13.92;47.78;102307.95;1712510;83;25532;-43
2024/01/29 11:22:56;;;;;;;9.28;6.33;;;;;;;13.64;48.52;102304.31;1712266;83;27175;-45
2024/01/29 11:25:31;;;;;;;9.20;6.65;;;;;;;13.26;48.23;102300.38;1712217;83;25565;-43